LPFL/FLW METAR and TAF weather

Enter ICAO airport designator
Station Type Date Time Source
LPFL METAR 2021/05/14 18:00 UTC NOAA

LPFL 141800Z VRB11G28KT 9999 BKN009 21/17 Q1018


Station Type Date Time Source
LPFL Decoded METAR 2021/05/14 18:00 UTC NOAA

Flores Acores , Portugal (LPFL) 39-27N 031-08W 29M
May 14, 2021 - 02:00 PM EDT / 2021.05.14 1800 UTC
Wind: Variable at 13 MPH (11 KT) gusting to 32 MPH (28 KT):0
Visibility: greater than 7 mile(s):0
Sky conditions: mostly cloudy
Temperature: 69 F (21 C)
Dew Point: 62 F (17 C)
Relative Humidity: 77%
Pressure (altimeter): 30.06 in. Hg (1018 hPa)
ob: LPFL 141800Z VRB11G28KT 9999 BKN009 21/17 Q1018
cycle: 18

Station Type Date Time Source
LPFL TAF UTC NOAA

Error!

Example: see airport list